Time;durP1;ratioP1;P1;durP2;ratioP2;P2;SDS_P1;SDS_P2;PMS_P1;PMS_P2;Temp;Humidity;BMP_temperature;BMP_pressure;BME280_temperature;BME280_humidity;BME280_pressure;Samples;Min_cycle;Max_cycle;Signal;HPM_P1;HPM_P2
2022/11/19 00:00:54;;;;;;;4.10;3.43;;;11.10;99.90;;;;;;4983188;28;20522;-95
2022/11/19 00:03:21;;;;;;;5.47;3.77;;;11.10;99.90;;;;;;4987491;28;20500;-95
2022/11/19 00:05:49;;;;;;;4.67;3.53;;;11.10;99.90;;;;;;5003534;28;20445;-94
2022/11/19 00:08:18;;;;;;;4.40;3.33;;;11.10;99.90;;;;;;4986184;28;20912;-95
2022/11/19 00:10:45;;;;;;;3.93;3.50;;;11.10;99.90;;;;;;5003185;28;20910;-95
2022/11/19 00:13:13;;;;;;;4.40;3.40;;;11.10;99.90;;;;;;5021132;28;20516;-95
2022/11/19 00:15:40;;;;;;;4.57;3.50;;;11.10;99.90;;;;;;5035515;28;20527;-95
2022/11/19 00:18:06;;;;;;;4.13;3.57;;;11.10;99.90;;;;;;5002701;28;20463;-95
2022/11/19 00:20:33;;;;;;;4.87;3.83;;;11.10;99.90;;;;;;5035338;28;20416;-95
2022/11/19 00:22:59;;;;;;;4.67;3.90;;;11.10;99.90;;;;;;4986420;28;20424;-95
2022/11/19 00:25:29;;;;;;;5.50;4.00;;;11.10;99.90;;;;;;5018737;28;20420;-95
2022/11/19 00:27:56;;;;;;;4.50;3.73;;;11.10;99.90;;;;;;5034937;28;20482;-95
2022/11/19 00:30:22;;;;;;;5.20;4.20;;;11.10;99.90;;;;;;5036048;28;20828;-94
2022/11/19 00:32:48;;;;;;;5.30;3.40;;;11.10;99.90;;;;;;5035421;28;20463;-96
2022/11/19 00:35:14;;;;;;;5.23;3.63;;;11.10;99.90;;;;;;5051637;28;21070;-94
2022/11/19 00:37:40;;;;;;;5.17;4.03;;;11.10;99.90;;;;;;5035594;28;20873;-95
2022/11/19 00:40:27;;;;;;;4.37;3.33;;;11.00;99.90;;;;;;5025140;28;20510;-95
2022/11/19 00:45:55;;;;;;;4.70;3.60;;;11.00;99.90;;;;;;5028728;28;20956;-96
2022/11/19 00:49:11;;;;;;;;;;;;;;;;;;;;;
2022/11/19 00:53:02;;;;;;;;;;;;;;;;;;;;;
2022/11/19 00:55:58;;;;;;;4.20;3.17;;;11.00;99.90;;;;;;5002359;28;20496;-96
2022/11/19 01:09:34;;;;;;;;;;;;;;;;;;;;;
2022/11/19 01:17:09;;;;;;;;;;;;;;;;;;;;;
2022/11/19 01:20:28;;;;;;;;;;;;;;;;;;;;;
2022/11/19 01:24:03;;;;;;;4.17;3.43;;;10.90;99.90;;;;;;5013873;28;20454;-96
2022/11/19 01:34:40;;;;;;;7.10;3.47;;;10.90;99.90;;;;;;4997835;28;20439;-95
2022/11/19 01:38:04;;;;;;;;;;;;;;;;;;;;;
2022/11/19 01:49:35;;;;;;;4.47;3.60;;;10.80;99.90;;;;;;4963111;28;20486;-95
2022/11/19 01:52:34;;;;;;;5.10;3.13;;;10.80;99.90;;;;;;5031139;28;20513;-96
2022/11/19 01:55:26;;;;;;;3.60;3.30;;;10.80;99.90;;;;;;5031466;28;20490;-91
2022/11/19 01:58:33;;;;;;;;;;;;;;;;;;;;;
2022/11/19 02:01:47;;;;;;;4.03;3.47;;;10.80;99.90;;;;;;4992987;28;20451;-92
2022/11/19 02:08:53;;;;;;;5.43;3.70;;;10.80;99.90;;;;;;4931226;28;20468;-96
2022/11/19 02:16:06;;;;;;;4.60;3.90;;;10.80;99.90;;;;;;4989723;28;20693;-95
2022/11/19 02:19:40;;;;;;;5.80;4.30;;;10.80;99.90;;;;;;5000487;28;20432;-94
2022/11/19 02:22:43;;;;;;;;;;;;;;;;;;;;;
2022/11/19 02:26:59;;;;;;;;;;;;;;;;;;;;;
2022/11/19 02:30:52;;;;;;;6.27;5.00;;;10.70;99.90;;;;;;4952543;28;20826;-95
2022/11/19 02:33:48;;;;;;;6.20;4.93;;;10.70;99.90;;;;;;4939009;29;20459;-96
2022/11/19 02:40:45;;;;;;;;;;;;;;;;;;;;;
2022/11/19 02:47:05;;;;;;;6.07;4.90;;;10.70;99.90;;;;;;4967847;29;20445;-90
2022/11/19 02:53:51;;;;;;;;;;;;;;;;;;;;;
2022/11/19 02:57:20;;;;;;;7.03;5.20;;;10.70;99.90;;;;;;4968884;29;20439;-96
2022/11/19 03:07:16;;;;;;;6.43;5.43;;;10.60;99.90;;;;;;4986129;28;20436;-96
2022/11/19 03:10:01;;;;;;;8.17;5.77;;;10.60;99.90;;;;;;5007540;28;20394;-96
2022/11/19 03:12:51;;;;;;;7.70;6.10;;;10.60;99.90;;;;;;4990822;28;20532;-95
2022/11/19 03:18:58;;;;;;;6.17;5.07;;;10.60;99.90;;;;;;5025848;28;20790;-96
2022/11/19 03:21:27;;;;;;;8.77;6.20;;;10.60;99.90;;;;;;5005979;28;20428;-96
2022/11/19 03:24:09;;;;;;;5.97;5.37;;;10.50;99.90;;;;;;5010190;28;20574;-95
2022/11/19 03:26:59;;;;;;;9.90;5.80;;;10.50;99.90;;;;;;5055537;28;20462;-95
2022/11/19 03:29:29;;;;;;;9.27;6.60;;;10.50;99.90;;;;;;5021909;28;20437;-96
2022/11/19 03:32:06;;;;;;;8.67;6.97;;;10.50;99.90;;;;;;5017907;28;20546;-95
2022/11/19 03:34:34;;;;;;;10.30;6.60;;;10.50;99.90;;;;;;4999147;28;20423;-96
2022/11/19 03:37:06;;;;;;;8.60;6.73;;;10.50;99.90;;;;;;5005439;28;20439;-96
2022/11/19 03:39:34;;;;;;;9.80;6.87;;;10.50;99.90;;;;;;5037046;28;20863;-94
2022/11/19 03:42:10;;;;;;;10.13;8.00;;;10.50;99.90;;;;;;5004450;28;20452;-96
2022/11/19 03:44:49;;;;;;;11.83;8.03;;;10.50;99.90;;;;;;5003930;28;20455;-96
2022/11/19 03:47:37;;;;;;;10.10;7.00;;;10.50;99.90;;;;;;5036459;28;20931;-94
2022/11/19 03:50:12;;;;;;;10.33;7.73;;;10.50;99.90;;;;;;4971313;28;20531;-95
2022/11/19 03:52:38;;;;;;;10.53;7.60;;;10.50;99.90;;;;;;5016770;28;20444;-95
2022/11/19 03:55:04;;;;;;;9.87;7.53;;;10.50;99.90;;;;;;5016801;28;20811;-95
2022/11/19 03:57:30;;;;;;;13.00;9.00;;;10.50;99.90;;;;;;4999793;28;20417;-95
2022/11/19 03:59:56;;;;;;;11.97;8.30;;;10.50;99.90;;;;;;4967158;28;20430;-96
2022/11/19 04:02:22;;;;;;;13.17;9.33;;;10.50;99.90;;;;;;4983768;28;20475;-96
2022/11/19 04:04:51;;;;;;;10.43;7.80;;;10.40;99.90;;;;;;5022279;28;20456;-95
2022/11/19 04:07:20;;;;;;;11.70;8.90;;;10.40;99.90;;;;;;5036258;28;20467;-95
2022/11/19 04:09:50;;;;;;;10.90;8.57;;;10.40;99.90;;;;;;5019816;28;20505;-96
2022/11/19 04:12:23;;;;;;;11.80;8.57;;;10.40;99.90;;;;;;5056256;28;20460;-96
2022/11/19 04:14:51;;;;;;;10.50;7.80;;;10.40;99.90;;;;;;5022621;28;20527;-95
2022/11/19 04:17:19;;;;;;;13.20;9.10;;;10.40;99.90;;;;;;5036562;28;20434;-96
2022/11/19 04:19:45;;;;;;;10.23;8.17;;;10.40;99.90;;;;;;5021815;28;20743;-96
2022/11/19 04:22:13;;;;;;;14.73;9.13;;;10.40;99.90;;;;;;5023687;28;20441;-96
2022/11/19 04:24:40;;;;;;;11.07;9.03;;;10.40;99.90;;;;;;5050977;28;20441;-95
2022/11/19 04:27:07;;;;;;;12.83;9.10;;;10.40;99.90;;;;;;5017882;28;20491;-94
2022/11/19 04:29:33;;;;;;;14.27;9.70;;;10.40;99.90;;;;;;5018608;28;20631;-95
2022/11/19 04:31:59;;;;;;;11.23;8.60;;;10.40;99.90;;;;;;5018863;28;20543;-95
2022/11/19 04:34:25;;;;;;;12.87;9.40;;;10.40;99.90;;;;;;5035035;28;21115;-94
2022/11/19 04:36:51;;;;;;;12.47;9.10;;;10.40;99.90;;;;;;5051798;28;20412;-96
2022/11/19 04:39:16;;;;;;;12.30;8.97;;;10.30;99.90;;;;;;5018629;28;20429;-93
2022/11/19 04:41:42;;;;;;;12.40;8.60;;;10.40;99.90;;;;;;5035683;28;20421;-95
2022/11/19 04:44:08;;;;;;;15.30;10.20;;;10.40;99.90;;;;;;5051963;28;20438;-95
2022/11/19 04:46:35;;;;;;;12.80;9.97;;;10.30;99.90;;;;;;4986661;28;20463;-94
2022/11/19 04:49:00;;;;;;;11.83;8.73;;;10.30;99.90;;;;;;4984887;28;20467;-95
2022/11/19 04:51:27;;;;;;;14.53;10.20;;;10.40;99.90;;;;;;4982545;28;20444;-96
2022/11/19 04:53:54;;;;;;;13.70;9.80;;;10.30;99.90;;;;;;4970023;28;20530;-95
2022/11/19 04:56:20;;;;;;;11.90;8.93;;;10.30;99.90;;;;;;5018387;28;20502;-93
2022/11/19 04:58:46;;;;;;;11.47;9.20;;;10.30;99.90;;;;;;4985984;28;20911;-95
2022/11/19 05:01:14;;;;;;;15.00;10.20;;;10.30;99.90;;;;;;5034544;28;20396;-93
2022/11/19 05:03:40;;;;;;;12.37;9.37;;;10.30;99.90;;;;;;5034768;28;20435;-96
2022/11/19 05:06:07;;;;;;;12.07;9.30;;;10.30;99.90;;;;;;5018286;28;20439;-94
2022/11/19 05:08:33;;;;;;;13.00;10.43;;;10.30;99.90;;;;;;5051105;28;20533;-94
2022/11/19 05:10:59;;;;;;;13.93;10.13;;;10.30;99.90;;;;;;5035130;28;20427;-94
2022/11/19 05:13:24;;;;;;;14.07;10.30;;;10.30;99.90;;;;;;4985832;28;20915;-94
2022/11/19 05:15:50;;;;;;;14.70;10.63;;;10.30;99.90;;;;;;4984076;28;20734;-94
2022/11/19 05:18:16;;;;;;;14.77;11.00;;;10.30;99.90;;;;;;5018435;28;20455;-93
2022/11/19 05:20:42;;;;;;;14.57;11.27;;;10.30;99.90;;;;;;5018204;28;20424;-94
2022/11/19 05:23:08;;;;;;;13.60;10.07;;;10.20;99.90;;;;;;5035321;28;20418;-94
2022/11/19 05:25:34;;;;;;;14.40;10.93;;;10.20;99.90;;;;;;5051132;28;20438;-95
2022/11/19 05:28:00;;;;;;;14.57;10.83;;;10.20;99.90;;;;;;5035265;28;20456;-94
2022/11/19 05:30:26;;;;;;;15.23;11.93;;;10.20;99.90;;;;;;5034212;28;20412;-94
2022/11/19 05:32:52;;;;;;;14.67;11.07;;;10.20;99.90;;;;;;4994076;28;20501;-95
2022/11/19 05:35:18;;;;;;;14.13;10.90;;;10.20;99.90;;;;;;4984756;28;20443;-93
2022/11/19 05:37:47;;;;;;;15.57;10.93;;;10.20;99.90;;;;;;5054372;28;20441;-94
2022/11/19 05:40:13;;;;;;;11.90;10.57;;;10.20;99.90;;;;;;5038539;28;20813;-93
2022/11/19 05:42:42;;;;;;;14.43;10.50;;;10.20;99.90;;;;;;5021802;28;20970;-94
2022/11/19 05:45:09;;;;;;;13.53;11.03;;;10.20;99.90;;;;;;5005422;28;20794;-94
2022/11/19 05:47:35;;;;;;;13.40;10.70;;;10.20;99.90;;;;;;5005399;28;20537;-94
2022/11/19 05:50:02;;;;;;;15.47;11.10;;;10.20;99.90;;;;;;5021499;28;20501;-94
2022/11/19 05:52:28;;;;;;;14.50;10.77;;;10.20;99.90;;;;;;5021100;28;20910;-95
2022/11/19 05:54:54;;;;;;;16.03;11.73;;;10.10;99.90;;;;;;5021041;28;20419;-94
2022/11/19 05:57:20;;;;;;;16.10;11.97;;;10.10;99.90;;;;;;5037589;28;20490;-94
2022/11/19 05:59:46;;;;;;;14.83;10.97;;;10.10;99.90;;;;;;5037705;28;20499;-93
2022/11/19 06:02:12;;;;;;;15.33;12.50;;;10.10;99.90;;;;;;5021339;28;20425;-93
2022/11/19 06:04:39;;;;;;;14.57;11.37;;;10.10;99.90;;;;;;5037854;28;20431;-93
2022/11/19 06:07:05;;;;;;;13.83;11.13;;;10.10;99.90;;;;;;5020636;28;20884;-92
2022/11/19 06:09:31;;;;;;;12.43;10.50;;;10.10;99.90;;;;;;5021034;28;20822;-93
2022/11/19 06:11:57;;;;;;;15.83;11.30;;;10.10;99.90;;;;;;5020643;28;20501;-93
2022/11/19 06:14:25;;;;;;;13.63;11.23;;;10.10;99.90;;;;;;5037139;28;20423;-93
2022/11/19 06:16:54;;;;;;;14.67;11.20;;;10.10;99.90;;;;;;5002879;28;20531;-93
2022/11/19 06:19:21;;;;;;;13.60;10.10;;;10.10;99.90;;;;;;4984906;28;20428;-94
2022/11/19 06:21:47;;;;;;;13.47;11.30;;;10.10;99.90;;;;;;4984768;28;20460;-91
2022/11/19 06:24:13;;;;;;;13.90;11.47;;;10.10;99.90;;;;;;4985374;28;20457;-93
2022/11/19 06:26:40;;;;;;;14.67;11.67;;;10.00;99.90;;;;;;4985212;28;20467;-93
2022/11/19 06:29:06;;;;;;;16.23;11.37;;;10.00;99.90;;;;;;5017988;28;20538;-91
2022/11/19 06:31:32;;;;;;;14.33;11.93;;;10.00;99.90;;;;;;4984700;28;20877;-93
2022/11/19 06:33:59;;;;;;;13.90;11.30;;;10.00;99.90;;;;;;5000996;28;20527;-93
2022/11/19 06:36:31;;;;;;;14.40;10.90;;;10.00;99.90;;;;;;4968790;28;21015;-93
2022/11/19 06:38:57;;;;;;;16.77;13.03;;;10.00;99.90;;;;;;4984879;28;20758;-94
2022/11/19 06:41:47;;;;;;;14.13;11.10;;;10.00;99.90;;;;;;4995998;28;20443;-94
2022/11/19 06:44:41;;;;;;;13.77;11.60;;;10.00;99.90;;;;;;5001499;28;20536;-92
2022/11/19 06:47:19;;;;;;;16.90;11.13;;;10.00;99.90;;;;;;5000753;28;20905;-92
2022/11/19 06:50:12;;;;;;;15.23;11.73;;;10.00;99.90;;;;;;4984341;28;20420;-92
2022/11/19 06:52:38;;;;;;;17.47;13.67;;;9.90;99.90;;;;;;4984611;28;20455;-93
2022/11/19 06:55:05;;;;;;;16.60;13.07;;;9.90;99.90;;;;;;4992191;28;20448;-92
2022/11/19 06:58:06;;;;;;;17.53;14.17;;;9.90;99.90;;;;;;4984604;28;20943;-92
2022/11/19 07:00:33;;;;;;;17.90;13.47;;;9.90;99.90;;;;;;4983943;28;20491;-92
2022/11/19 07:03:26;;;;;;;19.63;14.07;;;9.90;99.90;;;;;;5003178;28;20467;-93
2022/11/19 07:05:59;;;;;;;18.87;14.43;;;9.90;99.90;;;;;;5003930;28;20462;-93
2022/11/19 07:08:25;;;;;;;19.00;13.63;;;9.90;99.90;;;;;;4989222;28;20500;-92
2022/11/19 07:10:51;;;;;;;19.17;13.97;;;9.90;99.90;;;;;;5000272;28;20409;-93
2022/11/19 07:13:23;;;;;;;21.03;13.93;;;9.90;99.90;;;;;;5000696;28;20450;-90
2022/11/19 07:15:48;;;;;;;18.00;14.50;;;9.80;99.90;;;;;;5019820;28;20450;-92
2022/11/19 07:18:14;;;;;;;17.00;13.43;;;9.80;99.90;;;;;;5025152;28;20514;-91
2022/11/19 07:20:40;;;;;;;19.10;13.97;;;9.80;99.90;;;;;;5000166;28;20488;-92
2022/11/19 07:23:10;;;;;;;17.60;13.37;;;9.80;99.90;;;;;;4983957;28;20507;-93
2022/11/19 07:25:36;;;;;;;16.23;13.20;;;9.80;99.90;;;;;;4983854;28;20459;-94
2022/11/19 07:28:03;;;;;;;19.03;13.90;;;9.80;99.90;;;;;;4983783;28;20591;-94
2022/11/19 07:30:30;;;;;;;18.13;14.40;;;9.80;99.90;;;;;;4999855;28;20420;-93
2022/11/19 07:32:56;;;;;;;18.83;15.10;;;9.80;99.90;;;;;;5011517;28;20451;-94
2022/11/19 07:35:22;;;;;;;16.93;13.50;;;9.80;99.90;;;;;;5035994;28;20431;-94
2022/11/19 07:37:47;;;;;;;20.97;14.63;;;9.80;99.90;;;;;;5035784;28;20494;-94
2022/11/19 07:40:15;;;;;;;19.10;13.30;;;9.80;99.90;;;;;;4999848;28;20444;-94
2022/11/19 07:42:49;;;;;;;19.50;14.20;;;9.80;99.90;;;;;;4984110;28;20936;-94
2022/11/19 07:45:18;;;;;;;19.33;14.27;;;9.80;99.90;;;;;;5035872;28;20459;-93
2022/11/19 07:47:44;;;;;;;19.23;14.17;;;9.80;99.90;;;;;;4990106;28;20891;-93
2022/11/19 07:50:11;;;;;;;20.00;14.90;;;9.80;99.90;;;;;;4999519;28;20432;-91
2022/11/19 07:52:37;;;;;;;18.20;14.07;;;9.80;99.90;;;;;;5010843;28;20450;-94
2022/11/19 07:55:04;;;;;;;18.63;14.20;;;9.80;99.90;;;;;;4976806;28;20431;-92
2022/11/19 07:57:30;;;;;;;18.87;13.97;;;9.70;99.90;;;;;;5035398;28;20946;-93
2022/11/19 07:59:56;;;;;;;16.70;12.43;;;9.80;99.90;;;;;;5019019;28;20438;-94
2022/11/19 08:02:24;;;;;;;18.50;13.57;;;9.70;99.90;;;;;;5051919;28;20431;-94
2022/11/19 08:04:50;;;;;;;16.77;13.03;;;9.80;99.90;;;;;;5009430;28;20435;-94
2022/11/19 08:07:16;;;;;;;17.87;14.27;;;9.80;99.90;;;;;;5018984;28;20438;-93
2022/11/19 08:10:00;;;;;;;18.70;14.30;;;9.70;99.90;;;;;;5035443;28;20403;-93
2022/11/19 08:12:28;;;;;;;17.70;13.40;;;9.70;99.90;;;;;;4983297;28;20417;-94
2022/11/19 08:14:55;;;;;;;19.83;13.83;;;9.70;99.90;;;;;;4999805;28;20427;-94
2022/11/19 08:20:06;;;;;;;17.33;13.90;;;9.70;99.90;;;;;;4984935;28;20404;-92
2022/11/19 08:22:34;;;;;;;18.30;13.30;;;9.70;99.90;;;;;;4982743;28;20502;-92
2022/11/19 08:25:00;;;;;;;16.97;13.27;;;9.70;99.90;;;;;;4998911;28;20407;-94
2022/11/19 08:27:26;;;;;;;19.87;15.13;;;9.70;99.90;;;;;;5035179;28;20502;-94
2022/11/19 08:29:52;;;;;;;15.20;12.27;;;9.70;99.90;;;;;;5002297;28;20428;-93
2022/11/19 08:32:18;;;;;;;17.00;13.50;;;9.70;99.90;;;;;;5022880;28;20518;-91
2022/11/19 08:34:44;;;;;;;15.97;12.17;;;9.70;99.90;;;;;;4982830;28;20451;-91
2022/11/19 08:37:12;;;;;;;16.40;13.00;;;9.70;99.90;;;;;;4998657;28;20404;-93
2022/11/19 08:39:39;;;;;;;18.60;13.20;;;9.60;99.90;;;;;;4966364;28;20425;-93
2022/11/19 08:44:52;;;;;;;19.67;13.60;;;9.60;99.90;;;;;;4989476;28;20559;-92
2022/11/19 08:47:17;;;;;;;19.67;12.50;;;9.70;99.90;;;;;;5001893;28;20436;-89
2022/11/19 08:49:43;;;;;;;15.50;12.07;;;9.60;99.90;;;;;;5015890;28;20470;-94
2022/11/19 08:52:10;;;;;;;19.07;13.07;;;9.60;99.90;;;;;;5006796;28;20603;-95
2022/11/19 08:54:38;;;;;;;19.27;13.77;;;9.60;99.90;;;;;;4968573;28;20451;-95
2022/11/19 08:57:04;;;;;;;17.40;12.47;;;9.60;99.90;;;;;;4983600;28;20420;-95
2022/11/19 08:59:30;;;;;;;17.93;13.23;;;9.60;99.90;;;;;;4999825;28;20928;-96
2022/11/19 09:01:56;;;;;;;16.63;12.20;;;9.60;99.90;;;;;;4968663;28;20862;-95
2022/11/19 09:04:22;;;;;;;17.50;12.53;;;9.60;99.90;;;;;;5000441;28;20919;-95
2022/11/19 09:06:51;;;;;;;15.63;12.13;;;9.50;99.90;;;;;;4969938;28;20526;-95
2022/11/19 09:09:20;;;;;;;16.73;11.93;;;9.50;99.90;;;;;;4988361;28;20551;-95
2022/11/19 09:12:11;;;;;;;17.20;11.80;;;9.50;99.90;;;;;;4979360;28;20428;-94
2022/11/19 09:14:55;;;;;;;;;;;;;;;;;;;;;
2022/11/19 09:18:14;;;;;;;;;;;;;;;;;;;;;
2022/11/19 09:21:20;;;;;;;;;;;;;;;;;;;;;
2022/11/19 09:23:50;;;;;;;14.90;11.60;;;9.50;99.90;;;;;;5042118;28;20739;-96
2022/11/19 09:26:39;;;;;;;16.73;11.90;;;9.50;99.90;;;;;;5015371;28;20537;-96
2022/11/19 09:29:16;;;;;;;17.43;12.57;;;9.50;99.90;;;;;;4989123;28;20470;-96
2022/11/19 09:31:43;;;;;;;15.70;11.13;;;9.50;99.90;;;;;;4987052;28;20764;-96
2022/11/19 09:34:09;;;;;;;15.77;11.50;;;9.50;99.90;;;;;;4986758;28;21112;-96
2022/11/19 09:36:35;;;;;;;15.50;12.00;;;9.50;99.90;;;;;;4988452;28;20680;-96
2022/11/19 09:39:02;;;;;;;19.60;13.00;;;9.50;99.90;;;;;;5003328;28;20431;-96
2022/11/19 09:41:36;;;;;;;16.57;12.17;;;9.40;99.90;;;;;;5003655;28;20416;-95
2022/11/19 09:44:26;;;;;;;16.33;12.20;;;9.40;99.90;;;;;;5005509;28;20406;-96
2022/11/19 09:47:04;;;;;;;16.10;12.87;;;9.40;99.90;;;;;;4971338;28;20456;-95
2022/11/19 09:49:36;;;;;;;17.57;12.53;;;9.40;99.90;;;;;;4987155;28;20470;-96
2022/11/19 09:52:08;;;;;;;15.00;11.40;;;9.40;99.90;;;;;;4985559;28;20461;-96
2022/11/19 09:54:40;;;;;;;15.70;12.00;;;9.40;99.90;;;;;;5001926;28;20742;-96
2022/11/19 09:57:14;;;;;;;16.43;12.27;;;9.40;99.90;;;;;;5005186;28;20428;-95
2022/11/19 09:59:40;;;;;;;15.10;12.20;;;9.40;99.90;;;;;;5038842;28;20510;-95
2022/11/19 10:02:18;;;;;;;18.83;13.20;;;9.40;99.90;;;;;;5022401;28;20807;-96
2022/11/19 10:04:45;;;;;;;13.23;10.67;;;9.40;99.90;;;;;;5022865;28;20945;-95
2022/11/19 10:07:40;;;;;;;16.90;11.63;;;9.40;99.90;;;;;;4991369;28;20427;-96
2022/11/19 10:10:28;;;;;;;17.23;11.80;;;9.40;99.90;;;;;;5008419;28;20455;-96
2022/11/19 10:13:16;;;;;;;14.73;11.60;;;9.40;99.90;;;;;;4998812;28;20447;-96
2022/11/19 10:16:10;;;;;;;13.27;10.83;;;9.40;99.90;;;;;;5036969;28;20455;-92
2022/11/19 10:19:16;;;;;;;16.30;12.27;;;9.40;99.90;;;;;;5030765;28;20428;-91
2022/11/19 10:22:10;;;;;;;16.33;11.63;;;9.40;99.90;;;;;;5008453;28;20458;-96
2022/11/19 10:25:11;;;;;;;13.80;11.23;;;9.40;99.90;;;;;;5010128;28;20407;-95
2022/11/19 10:28:04;;;;;;;12.47;10.40;;;9.40;99.90;;;;;;5028975;28;20479;-95
2022/11/19 10:31:14;;;;;;;14.63;10.47;;;9.30;99.90;;;;;;5021942;28;20462;-96
2022/11/19 10:33:50;;;;;;;14.60;11.00;;;9.30;99.90;;;;;;5020719;28;20466;-96
2022/11/19 10:36:25;;;;;;;15.57;11.03;;;9.30;99.90;;;;;;4999796;28;20428;-96
2022/11/19 10:39:12;;;;;;;14.60;11.50;;;9.30;99.90;;;;;;5004412;28;20443;-95
2022/11/19 10:41:45;;;;;;;14.20;11.20;;;9.30;99.90;;;;;;5022350;28;20746;-96
2022/11/19 10:44:39;;;;;;;16.90;11.30;;;9.30;99.90;;;;;;5024773;28;20479;-93
2022/11/19 10:47:38;;;;;;;14.33;11.33;;;9.30;99.90;;;;;;5022035;28;20946;-96
2022/11/19 10:50:05;;;;;;;13.40;10.50;;;9.30;99.90;;;;;;4990349;28;20789;-96
2022/11/19 10:52:38;;;;;;;13.67;10.43;;;9.30;99.90;;;;;;5007135;28;20443;-95
2022/11/19 11:00:57;;;;;;;;;;;;;;;;;;;;;
2022/11/19 11:04:28;;;;;;;14.40;9.60;;;9.30;99.90;;;;;;4899706;28;20430;-96
2022/11/19 11:07:53;;;;;;;12.23;10.07;;;9.20;99.90;;;;;;4981482;28;20426;-96
2022/11/19 11:10:34;;;;;;;13.80;10.97;;;9.20;99.90;;;;;;4931844;29;20441;-96
2022/11/19 11:17:51;;;;;;;;;;;;;;;;;;;;;
2022/11/19 15:18:28;;;;;;;10.00;7.20;;;8.90;99.30;;;;;;4963782;29;20551;-88
2022/11/19 15:21:28;;;;;;;9.63;7.83;;;8.90;99.00;;;;;;5007632;28;20567;-75
2022/11/19 15:24:00;;;;;;;10.30;8.10;;;8.90;98.90;;;;;;4963827;28;20419;-75
2022/11/19 15:26:44;;;;;;;9.23;7.57;;;8.90;99.00;;;;;;4995786;28;20455;-75
2022/11/19 15:29:44;;;;;;;9.00;6.83;;;8.90;99.00;;;;;;4979736;28;20461;-75
2022/11/19 15:32:22;;;;;;;8.10;7.00;;;8.90;99.00;;;;;;4996026;28;20427;-75
2022/11/19 15:35:17;;;;;;;8.60;7.10;;;8.90;99.00;;;;;;5013111;28;20418;-75
2022/11/19 15:37:52;;;;;;;11.20;7.87;;;8.90;99.00;;;;;;4995615;28;20452;-75
2022/11/19 15:40:22;;;;;;;9.33;7.47;;;8.90;99.00;;;;;;4991961;28;20485;-75
2022/11/19 15:43:13;;;;;;;8.20;6.80;;;8.90;99.00;;;;;;4999248;28;20438;-74
2022/11/19 15:45:44;;;;;;;7.83;6.67;;;8.90;99.10;;;;;;5015449;28;20932;-75
2022/11/19 15:48:51;;;;;;;12.30;8.17;;;8.90;99.00;;;;;;5032636;28;20872;-75
2022/11/19 15:51:19;;;;;;;10.50;6.80;;;8.90;99.00;;;;;;5025093;22;20663;-74
2022/11/19 15:53:59;;;;;;;7.00;6.30;;;8.90;99.10;;;;;;5053011;28;20484;-74
2022/11/19 15:56:35;;;;;;;10.33;7.87;;;8.90;99.10;;;;;;5002740;28;20415;-74
2022/11/19 15:59:03;;;;;;;8.97;6.70;;;8.90;99.00;;;;;;5052760;28;20455;-74
2022/11/19 16:01:36;;;;;;;10.83;6.27;;;8.90;99.00;;;;;;5019364;28;20408;-74
2022/11/19 16:04:06;;;;;;;9.23;7.07;;;8.90;99.00;;;;;;5052697;28;20450;-74
2022/11/19 16:06:33;;;;;;;8.20;6.30;;;8.90;98.90;;;;;;5015932;28;20422;-74
2022/11/19 16:09:03;;;;;;;9.30;7.57;;;8.90;98.90;;;;;;5034172;28;20445;-74
2022/11/19 16:17:36;;;;;;;8.27;6.30;;;8.90;98.80;;;;;;5014399;28;20455;-73
2022/11/19 16:20:29;;;;;;;7.90;6.17;;;8.90;98.80;;;;;;5032082;28;20454;-74
2022/11/19 16:23:05;;;;;;;9.63;7.50;;;8.90;98.80;;;;;;4998657;28;20458;-74
2022/11/19 16:25:35;;;;;;;8.50;6.67;;;8.90;98.80;;;;;;5014955;28;20490;-74
2022/11/19 16:28:13;;;;;;;8.03;6.63;;;8.90;98.80;;;;;;5015227;28;20533;-74
2022/11/19 16:30:47;;;;;;;8.67;6.93;;;8.90;98.90;;;;;;5014896;28;20451;-74
2022/11/19 16:33:18;;;;;;;9.30;6.83;;;8.90;98.90;;;;;;4998630;28;20428;-74
2022/11/19 16:35:46;;;;;;;8.63;6.30;;;8.90;98.80;;;;;;5032375;28;20387;-74
2022/11/19 16:38:26;;;;;;;9.03;6.20;;;8.90;98.80;;;;;;5014729;28;20454;-74
2022/11/19 16:43:47;;;;;;;9.07;7.10;;;8.90;98.70;;;;;;5054648;28;20420;-74
2022/11/19 16:46:21;;;;;;;7.80;6.40;;;8.90;98.70;;;;;;5038434;28;20432;-74
2022/11/19 16:48:49;;;;;;;10.40;7.33;;;8.90;98.70;;;;;;5054418;28;20439;-74
2022/11/19 16:51:29;;;;;;;8.90;7.10;;;8.90;98.70;;;;;;5037675;28;20536;-74
2022/11/19 16:53:58;;;;;;;10.10;7.60;;;8.90;98.70;;;;;;5054504;28;20401;-75
2022/11/19 16:56:25;;;;;;;9.50;7.20;;;8.80;98.70;;;;;;5072128;28;20399;-75
2022/11/19 16:58:57;;;;;;;8.23;6.97;;;8.80;98.70;;;;;;5037585;28;20441;-74
2022/11/19 17:01:23;;;;;;;9.57;6.90;;;8.80;98.60;;;;;;5041363;28;20509;-74
2022/11/19 17:03:50;;;;;;;7.57;6.00;;;8.80;98.60;;;;;;5018465;28;20951;-76
2022/11/19 17:06:23;;;;;;;9.70;7.50;;;8.80;98.60;;;;;;5016050;28;20491;-71
2022/11/19 17:09:00;;;;;;;8.13;6.77;;;8.80;98.50;;;;;;4979832;28;21276;-74
2022/11/19 17:14:40;;;;;;;10.40;7.13;;;8.80;98.40;;;;;;5047868;28;20473;-75
2022/11/19 17:17:29;;;;;;;8.00;6.43;;;8.80;98.30;;;;;;5016334;28;20895;-75
2022/11/19 17:19:56;;;;;;;8.53;7.03;;;8.80;98.30;;;;;;4996366;28;20455;-75
2022/11/19 17:22:27;;;;;;;7.60;6.80;;;8.80;98.30;;;;;;5047106;28;20417;-75
2022/11/19 17:24:56;;;;;;;9.30;7.47;;;8.80;98.30;;;;;;5013130;28;20522;-75
2022/11/19 17:27:28;;;;;;;7.70;6.23;;;8.80;98.30;;;;;;4995747;28;20821;-75
2022/11/19 17:30:03;;;;;;;7.97;6.80;;;8.80;98.30;;;;;;5033094;28;20485;-75
2022/11/19 17:32:36;;;;;;;8.40;6.50;;;8.80;98.30;;;;;;5034694;28;20413;-75
2022/11/19 17:35:08;;;;;;;8.53;6.90;;;8.80;98.30;;;;;;5049754;28;20429;-75
2022/11/19 17:37:34;;;;;;;8.73;6.43;;;8.80;98.20;;;;;;5035526;28;20382;-75
2022/11/19 17:40:00;;;;;;;8.90;6.87;;;8.80;98.20;;;;;;5028911;28;21004;-75
2022/11/19 17:45:13;;;;;;;7.83;6.70;;;8.80;98.20;;;;;;4999714;28;20987;-75
2022/11/19 17:47:39;;;;;;;8.30;6.40;;;8.80;98.20;;;;;;4999087;28;20457;-75
2022/11/19 17:50:10;;;;;;;7.27;5.90;;;8.80;98.30;;;;;;5002589;28;20993;-75
2022/11/19 17:52:36;;;;;;;7.10;6.20;;;8.80;98.30;;;;;;5018467;28;20425;-75
2022/11/19 17:55:17;;;;;;;7.63;6.57;;;8.80;98.30;;;;;;5030784;28;20411;-75
2022/11/19 17:57:45;;;;;;;7.47;6.03;;;8.80;98.30;;;;;;5033900;28;20402;-75
2022/11/19 18:00:12;;;;;;;8.53;6.73;;;8.80;98.30;;;;;;5018768;28;20456;-75
2022/11/19 18:02:40;;;;;;;8.13;6.97;;;8.80;98.30;;;;;;5052857;28;20409;-75
2022/11/19 18:05:19;;;;;;;7.10;6.40;;;8.80;98.30;;;;;;5035093;28;20434;-75
2022/11/19 18:07:45;;;;;;;8.30;6.33;;;8.80;98.30;;;;;;5034954;28;20480;-75
2022/11/19 18:10:14;;;;;;;8.13;6.50;;;8.80;98.30;;;;;;5050497;28;20434;-75
2022/11/19 18:12:40;;;;;;;8.43;6.23;;;8.70;98.20;;;;;;5018064;28;21250;-75
2022/11/19 18:15:09;;;;;;;8.27;6.40;;;8.70;98.20;;;;;;4985887;28;20426;-75
2022/11/19 18:17:35;;;;;;;9.27;7.20;;;8.70;98.20;;;;;;5052620;28;20418;-75
2022/11/19 18:20:01;;;;;;;8.10;6.20;;;8.70;98.20;;;;;;5034295;28;20459;-75
2022/11/19 18:22:28;;;;;;;8.83;7.20;;;8.70;98.20;;;;;;5034379;28;20395;-75
2022/11/19 18:24:56;;;;;;;9.30;6.90;;;8.70;98.20;;;;;;5016626;28;20940;-75
2022/11/19 18:27:24;;;;;;;7.70;6.07;;;8.70;98.20;;;;;;4998844;28;20395;-75
2022/11/19 18:29:50;;;;;;;8.50;6.93;;;8.70;98.20;;;;;;5015361;28;20473;-75
2022/11/19 18:32:16;;;;;;;9.10;6.47;;;8.70;98.20;;;;;;5018157;28;20915;-75
2022/11/19 18:34:43;;;;;;;9.07;6.73;;;8.70;98.20;;;;;;5001123;28;20446;-75
2022/11/19 18:37:11;;;;;;;8.27;6.20;;;8.70;98.10;;;;;;5014998;28;20427;-75
2022/11/19 18:39:38;;;;;;;8.00;6.73;;;8.70;98.20;;;;;;5021472;28;20924;-75
2022/11/19 18:42:11;;;;;;;8.53;6.93;;;8.70;98.20;;;;;;5014906;28;20429;-75
2022/11/19 18:44:38;;;;;;;9.17;6.60;;;8.70;98.20;;;;;;5029993;28;20438;-75
2022/11/19 18:47:11;;;;;;;7.70;6.00;;;8.70;98.20;;;;;;5035011;28;20482;-75
2022/11/19 18:49:37;;;;;;;8.60;6.73;;;8.70;98.10;;;;;;5030429;28;20579;-75
2022/11/19 18:52:14;;;;;;;10.17;6.90;;;8.70;98.20;;;;;;4999502;28;20969;-75
2022/11/19 18:54:40;;;;;;;9.53;6.90;;;8.70;98.10;;;;;;5014253;28;20429;-75
2022/11/19 18:57:06;;;;;;;11.00;7.30;;;8.70;98.20;;;;;;5032746;28;20443;-75
2022/11/19 18:59:32;;;;;;;8.70;6.60;;;8.70;98.10;;;;;;5002774;28;20462;-75
2022/11/19 19:02:03;;;;;;;8.97;7.10;;;8.70;98.10;;;;;;5013894;28;20407;-75
2022/11/19 19:04:29;;;;;;;8.23;7.00;;;8.70;98.10;;;;;;5033711;28;20876;-75
2022/11/19 19:06:57;;;;;;;8.40;6.70;;;8.70;98.10;;;;;;5016478;28;20498;-75
2022/11/19 19:09:24;;;;;;;9.40;6.57;;;8.70;98.10;;;;;;5018234;28;20476;-75
2022/11/19 19:14:38;;;;;;;8.03;6.57;;;8.70;98.50;;;;;;5033144;28;20453;-75
2022/11/19 19:17:04;;;;;;;8.87;6.70;;;8.70;98.10;;;;;;5033268;28;20892;-75
2022/11/19 19:19:30;;;;;;;9.03;7.33;;;8.70;98.10;;;;;;5002898;28;20469;-75